Time;durP1;ratioP1;P1;durP2;ratioP2;P2;SDS_P1;SDS_P2;PMS_P1;PMS_P2;Temp;Humidity;BMP_temperature;BMP_pressure;BME280_temperature;BME280_humidity;BME280_pressure;Samples;Min_cycle;Max_cycle;Signal;HPM_P1;HPM_P2
2022/09/17 00:00:04;;;;;;;16.35;3.58;;;12.00;99.90;;;;;;5079009;28;20035;-62
2022/09/17 00:02:30;;;;;;;12.52;2.53;;;12.10;99.90;;;;;;5114367;28;20052;-62
2022/09/17 00:04:56;;;;;;;13.35;2.70;;;12.10;99.90;;;;;;5113998;28;20048;-62
2022/09/17 00:07:22;;;;;;;14.07;2.42;;;12.10;99.90;;;;;;5113994;28;20046;-63
2022/09/17 00:09:47;;;;;;;17.70;2.25;;;12.00;99.90;;;;;;5113880;28;20039;-62
2022/09/17 00:12:13;;;;;;;17.20;2.95;;;12.00;99.90;;;;;;5095405;28;20074;-63
2022/09/17 00:14:40;;;;;;;15.40;2.08;;;12.00;99.90;;;;;;5095869;28;20044;-63
2022/09/17 00:17:05;;;;;;;16.42;3.33;;;12.00;99.90;;;;;;5113800;28;20067;-63
2022/09/17 00:19:31;;;;;;;12.20;2.22;;;11.90;99.90;;;;;;5113516;28;20074;-62
2022/09/17 00:21:57;;;;;;;11.98;2.25;;;12.00;99.90;;;;;;5113687;28;20089;-62
2022/09/17 00:24:22;;;;;;;15.52;2.22;;;11.90;99.90;;;;;;5113456;28;20047;-62
2022/09/17 00:26:49;;;;;;;10.70;1.83;;;11.80;99.90;;;;;;5095054;28;20044;-62
2022/09/17 00:29:15;;;;;;;15.77;2.38;;;11.80;99.90;;;;;;5113667;28;20039;-62
2022/09/17 00:31:41;;;;;;;18.15;2.95;;;11.60;99.90;;;;;;5113398;28;20535;-62
2022/09/17 00:34:06;;;;;;;14.20;2.53;;;11.60;99.90;;;;;;5113230;28;20062;-62
2022/09/17 00:36:37;;;;;;;20.25;3.00;;;11.50;99.90;;;;;;5095023;28;20043;-62
2022/09/17 00:39:05;;;;;;;22.67;3.78;;;11.40;99.90;;;;;;5097317;28;20567;-62
2022/09/17 00:41:32;;;;;;;19.73;3.85;;;11.40;99.90;;;;;;5105947;28;20114;-62
2022/09/17 00:43:59;;;;;;;12.98;2.10;;;11.30;99.90;;;;;;5113326;28;20431;-62
2022/09/17 00:46:39;;;;;;;17.73;2.55;;;11.30;99.90;;;;;;5113253;28;20184;-62
2022/09/17 00:49:31;;;;;;;18.75;3.25;;;11.20;99.90;;;;;;5113008;28;20043;-60
2022/09/17 00:52:05;;;;;;;19.20;2.75;;;11.30;99.90;;;;;;5108362;28;20111;-63
2022/09/17 00:54:32;;;;;;;16.73;2.30;;;11.10;99.90;;;;;;5112979;28;20051;-62
2022/09/17 00:56:57;;;;;;;15.52;3.55;;;11.30;99.90;;;;;;5112735;28;20100;-62
2022/09/17 00:59:24;;;;;;;12.10;2.40;;;11.60;99.90;;;;;;5094730;28;20035;-62
2022/09/17 01:01:50;;;;;;;17.23;2.42;;;11.70;99.90;;;;;;5112807;28;20044;-62
2022/09/17 01:04:21;;;;;;;8.98;2.20;;;11.80;99.90;;;;;;5112800;28;20043;-62
2022/09/17 01:07:05;;;;;;;13.40;2.40;;;11.80;99.90;;;;;;5112875;28;20050;-61
2022/09/17 01:09:52;;;;;;;11.98;2.47;;;12.10;99.90;;;;;;5112944;28;20145;-62
2022/09/17 01:12:55;;;;;;;14.88;1.83;;;12.00;99.90;;;;;;5112477;28;20092;-62
2022/09/17 01:16:03;;;;;;;13.52;2.47;;;12.00;99.90;;;;;;5112715;28;20043;-63
2022/09/17 01:19:03;;;;;;;11.68;1.95;;;12.00;99.90;;;;;;5098852;28;20051;-63
2022/09/17 01:21:55;;;;;;;11.93;2.00;;;12.00;99.90;;;;;;5112539;28;20380;-62
2022/09/17 01:24:49;;;;;;;14.50;2.47;;;12.10;99.90;;;;;;5112504;28;20169;-63
2022/09/17 01:27:26;;;;;;;14.65;2.08;;;12.10;99.90;;;;;;5112434;28;20047;-63
2022/09/17 01:30:11;;;;;;;14.98;2.00;;;12.00;99.90;;;;;;5112594;28;20039;-63
2022/09/17 01:32:53;;;;;;;17.08;2.20;;;12.00;99.90;;;;;;5112510;28;20067;-62
2022/09/17 01:35:30;;;;;;;11.23;2.15;;;11.90;99.90;;;;;;5112348;28;20039;-63
2022/09/17 01:38:30;;;;;;;16.45;2.38;;;12.00;99.90;;;;;;5106226;28;20085;-63
2022/09/17 01:41:18;;;;;;;12.02;2.20;;;12.00;99.90;;;;;;5100238;28;20479;-62
2022/09/17 01:43:47;;;;;;;18.88;2.90;;;12.00;99.90;;;;;;5112403;28;20415;-63
2022/09/17 01:46:32;;;;;;;17.83;2.50;;;12.00;99.90;;;;;;5112165;28;20062;-62
2022/09/17 01:49:02;;;;;;;18.95;2.70;;;12.00;99.90;;;;;;5112370;28;20562;-63
2022/09/17 01:51:37;;;;;;;14.98;2.88;;;11.90;99.90;;;;;;5094126;28;20485;-63
2022/09/17 01:54:31;;;;;;;15.38;2.40;;;11.90;99.90;;;;;;5112037;28;20047;-62
2022/09/17 01:57:00;;;;;;;14.35;1.85;;;11.90;99.90;;;;;;5112411;28;20039;-63
2022/09/17 01:59:28;;;;;;;13.82;2.10;;;11.90;99.90;;;;;;5112401;28;20040;-62
2022/09/17 02:01:59;;;;;;;11.45;2.25;;;11.80;99.90;;;;;;5112282;28;20076;-63
2022/09/17 02:04:31;;;;;;;13.65;3.40;;;11.90;99.90;;;;;;5112070;28;20043;-63
2022/09/17 02:07:07;;;;;;;12.10;1.90;;;11.90;99.90;;;;;;5094392;28;20043;-63
2022/09/17 02:09:40;;;;;;;13.95;2.30;;;11.80;99.90;;;;;;5113587;28;20058;-63
2022/09/17 02:12:11;;;;;;;13.20;1.98;;;11.80;99.90;;;;;;5116137;28;20042;-63
2022/09/17 02:14:46;;;;;;;15.27;3.00;;;11.80;99.90;;;;;;5116181;28;20044;-61
2022/09/17 02:17:35;;;;;;;18.90;3.63;;;11.90;99.90;;;;;;5115989;28;20372;-66
2022/09/17 02:20:02;;;;;;;8.75;1.63;;;10.40;99.90;;;;;;5116359;28;20043;-65
2022/09/17 02:22:49;;;;;;;9.73;1.85;;;9.30;99.90;;;;;;5116056;28;20089;-63
2022/09/17 02:25:33;;;;;;;14.98;2.53;;;10.10;99.90;;;;;;5115940;28;20039;-62
2022/09/17 02:28:24;;;;;;;20.38;2.35;;;9.60;99.90;;;;;;5115658;28;20110;-60
2022/09/17 02:30:50;;;;;;;15.55;2.50;;;9.50;99.90;;;;;;5115976;28;20044;-63
2022/09/17 02:33:17;;;;;;;18.98;2.60;;;9.90;99.90;;;;;;5097412;28;20097;-62
2022/09/17 02:35:45;;;;;;;13.75;2.20;;;9.50;99.90;;;;;;5115768;28;20078;-62
2022/09/17 02:38:11;;;;;;;14.55;1.95;;;9.70;99.90;;;;;;5107063;28;20047;-62
2022/09/17 02:40:50;;;;;;;18.88;2.17;;;10.20;99.90;;;;;;5100978;28;20032;-62
2022/09/17 02:43:37;;;;;;;14.52;2.22;;;10.00;99.90;;;;;;5115694;28;20040;-62
2022/09/17 02:46:18;;;;;;;19.75;2.67;;;9.10;99.90;;;;;;5115526;28;20047;-62
2022/09/17 02:48:53;;;;;;;19.88;2.92;;;9.40;99.90;;;;;;5115898;28;20127;-62
2022/09/17 02:51:47;;;;;;;13.63;2.53;;;9.40;99.90;;;;;;5115471;28;20443;-62
2022/09/17 02:54:22;;;;;;;20.30;2.80;;;9.70;99.90;;;;;;5103596;28;20112;-63
2022/09/17 02:57:11;;;;;;;17.23;2.88;;;9.90;99.90;;;;;;5115320;28;20040;-61
2022/09/17 02:59:52;;;;;;;17.88;2.10;;;9.50;99.90;;;;;;5115321;28;20395;-62
2022/09/17 03:02:31;;;;;;;14.63;2.63;;;10.30;99.90;;;;;;5115173;28;20082;-63
2022/09/17 03:04:57;;;;;;;15.40;2.20;;;10.50;99.90;;;;;;5115090;28;20517;-63
2022/09/17 03:07:23;;;;;;;21.50;3.25;;;10.40;99.90;;;;;;5114940;28;20055;-62
2022/09/17 03:09:49;;;;;;;17.40;1.80;;;10.50;99.90;;;;;;5115306;28;20043;-62
2022/09/17 03:12:15;;;;;;;12.75;1.98;;;10.10;99.90;;;;;;5096778;28;20044;-62
2022/09/17 03:14:41;;;;;;;11.88;2.38;;;10.10;99.90;;;;;;5114994;28;20110;-62
2022/09/17 03:17:09;;;;;;;14.40;1.90;;;10.10;99.90;;;;;;5114910;28;20126;-62
2022/09/17 03:19:35;;;;;;;10.48;2.42;;;10.40;99.90;;;;;;5114725;28;20124;-63
2022/09/17 03:22:00;;;;;;;12.15;2.05;;;10.90;99.90;;;;;;5079861;28;20448;-63
2022/09/17 03:24:26;;;;;;;12.95;1.75;;;10.50;99.90;;;;;;5096635;28;20119;-62
2022/09/17 03:26:51;;;;;;;9.95;1.88;;;10.30;99.90;;;;;;5114902;28;20043;-62
2022/09/17 03:29:17;;;;;;;12.13;1.90;;;10.20;99.90;;;;;;5114684;28;20134;-63
2022/09/17 03:31:43;;;;;;;11.45;2.17;;;10.20;99.90;;;;;;5114506;28;20043;-62
2022/09/17 03:34:09;;;;;;;12.35;1.85;;;10.10;99.90;;;;;;5096001;28;20039;-62
2022/09/17 03:36:34;;;;;;;14.48;3.33;;;10.30;99.90;;;;;;5114365;28;20039;-62
2022/09/17 03:39:00;;;;;;;13.25;1.92;;;10.30;99.90;;;;;;5099027;28;20127;-61
2022/09/17 03:41:26;;;;;;;16.55;2.33;;;10.60;99.90;;;;;;5106682;28;20032;-62
2022/09/17 03:43:53;;;;;;;14.90;1.98;;;10.50;99.90;;;;;;5096279;28;20108;-62
2022/09/17 03:46:19;;;;;;;13.75;3.55;;;10.40;99.90;;;;;;5114405;28;20104;-63
2022/09/17 03:48:45;;;;;;;26.40;4.32;;;10.60;99.90;;;;;;5114214;28;20043;-63
2022/09/17 03:51:11;;;;;;;17.30;3.13;;;10.60;99.90;;;;;;5114156;28;20066;-63
2022/09/17 03:53:37;;;;;;;17.77;3.05;;;10.60;99.90;;;;;;5114128;28;20047;-63
2022/09/17 03:56:05;;;;;;;12.23;2.13;;;10.70;99.90;;;;;;5114007;28;20487;-63
2022/09/17 03:58:31;;;;;;;13.63;2.53;;;10.80;99.90;;;;;;5095933;28;20380;-63
2022/09/17 04:00:57;;;;;;;12.40;2.50;;;10.80;99.90;;;;;;5113944;28;20556;-62
2022/09/17 04:03:24;;;;;;;10.68;3.28;;;10.80;99.90;;;;;;5113963;28;20044;-63
2022/09/17 04:05:50;;;;;;;15.40;2.10;;;10.70;99.90;;;;;;5113889;28;20173;-62
2022/09/17 04:08:16;;;;;;;11.82;1.92;;;10.60;99.90;;;;;;5113863;28;20080;-63
2022/09/17 04:10:43;;;;;;;15.30;2.20;;;10.80;99.90;;;;;;5113962;28;20491;-63
2022/09/17 04:13:12;;;;;;;14.02;1.80;;;10.80;99.90;;;;;;5113727;28;20090;-63
2022/09/17 04:15:38;;;;;;;14.23;2.60;;;10.90;99.90;;;;;;5113531;28;20487;-62
2022/09/17 04:18:04;;;;;;;18.35;3.05;;;10.70;99.90;;;;;;5113496;28;20047;-63
2022/09/17 04:20:30;;;;;;;22.23;3.25;;;10.80;99.90;;;;;;5113212;28;20598;-63
2022/09/17 04:22:55;;;;;;;15.02;2.25;;;10.80;99.90;;;;;;5113649;28;20403;-63
2022/09/17 04:25:21;;;;;;;13.15;2.08;;;10.70;99.90;;;;;;5113589;28;20049;-63
2022/09/17 04:27:47;;;;;;;8.00;1.88;;;10.80;99.90;;;;;;5113513;28;20123;-63
2022/09/17 04:30:13;;;;;;;19.10;2.40;;;10.70;99.90;;;;;;5094905;28;20050;-62
2022/09/17 04:32:39;;;;;;;9.70;1.67;;;10.70;99.90;;;;;;5094337;28;20471;-62
2022/09/17 04:35:05;;;;;;;12.55;2.05;;;10.80;99.90;;;;;;5113346;28;20051;-62
2022/09/17 04:37:31;;;;;;;13.18;2.38;;;10.80;99.90;;;;;;5110450;28;20040;-63
2022/09/17 04:39:57;;;;;;;15.85;2.22;;;10.80;99.90;;;;;;5093048;28;20119;-63
2022/09/17 04:42:23;;;;;;;11.80;3.15;;;11.00;99.90;;;;;;5078298;28;20053;-63
2022/09/17 04:44:48;;;;;;;16.98;1.95;;;10.90;99.90;;;;;;5094822;28;20479;-63
2022/09/17 04:47:14;;;;;;;15.32;2.38;;;11.00;99.90;;;;;;5112781;28;20039;-63
2022/09/17 04:49:39;;;;;;;12.85;2.30;;;11.00;99.90;;;;;;5113447;28;20367;-62
2022/09/17 04:52:05;;;;;;;9.52;1.40;;;10.90;99.90;;;;;;5112873;28;20050;-63
2022/09/17 04:54:31;;;;;;;13.70;2.50;;;11.10;99.90;;;;;;5112692;28;20097;-62
2022/09/17 04:56:57;;;;;;;13.40;1.90;;;11.10;99.90;;;;;;5113092;28;20035;-63
2022/09/17 04:59:23;;;;;;;14.60;2.25;;;11.20;99.90;;;;;;5112867;28;20163;-63
2022/09/17 05:01:48;;;;;;;12.43;1.65;;;11.20;99.90;;;;;;5112848;28;20031;-63
2022/09/17 05:04:14;;;;;;;11.80;1.80;;;11.10;99.90;;;;;;5094546;28;20467;-63
2022/09/17 05:06:40;;;;;;;14.25;2.50;;;11.20;99.90;;;;;;5112873;28;20043;-63
2022/09/17 05:09:06;;;;;;;9.30;1.60;;;11.30;99.90;;;;;;5112667;28;20403;-63
2022/09/17 05:11:31;;;;;;;10.80;2.15;;;11.30;99.90;;;;;;5112713;28;20043;-63
2022/09/17 05:13:57;;;;;;;11.52;3.55;;;11.40;99.90;;;;;;5112523;28;20514;-62
2022/09/17 05:16:23;;;;;;;13.95;2.10;;;11.50;99.90;;;;;;5112477;28;20110;-63
2022/09/17 05:18:50;;;;;;;16.42;2.63;;;11.20;99.90;;;;;;5112515;28;20031;-63
2022/09/17 05:21:17;;;;;;;14.52;1.83;;;11.10;99.90;;;;;;5112804;28;20046;-63
2022/09/17 05:23:42;;;;;;;15.60;2.70;;;11.10;99.90;;;;;;5112372;28;20042;-61
2022/09/17 05:26:08;;;;;;;19.42;2.42;;;11.10;99.90;;;;;;5112434;28;20035;-63
2022/09/17 05:28:34;;;;;;;12.95;1.80;;;11.40;99.90;;;;;;5112492;28;20079;-62
2022/09/17 05:31:00;;;;;;;13.93;2.10;;;11.20;99.90;;;;;;5112392;28;20110;-63
2022/09/17 05:33:26;;;;;;;21.42;2.38;;;11.10;99.90;;;;;;5112117;28;20096;-63
2022/09/17 05:35:51;;;;;;;19.20;2.17;;;10.90;99.90;;;;;;5094399;28;20051;-63
2022/09/17 05:38:17;;;;;;;15.43;2.00;;;10.70;99.90;;;;;;5102914;28;20488;-63
2022/09/17 05:40:44;;;;;;;14.90;2.70;;;10.70;99.90;;;;;;5098685;28;20032;-62
2022/09/17 05:43:10;;;;;;;8.07;1.40;;;10.50;99.90;;;;;;5112361;28;20402;-63
2022/09/17 05:45:36;;;;;;;8.52;1.85;;;10.50;99.90;;;;;;5115931;28;20054;-62
2022/09/17 05:48:05;;;;;;;8.30;1.33;;;10.50;99.90;;;;;;5116444;28;20055;-63
2022/09/17 05:50:31;;;;;;;12.23;1.55;;;10.30;99.90;;;;;;5116483;28;20043;-63
2022/09/17 05:53:03;;;;;;;9.52;1.60;;;10.00;99.90;;;;;;5116227;28;20112;-62
2022/09/17 05:55:28;;;;;;;8.48;1.52;;;10.10;99.90;;;;;;5116463;28;20040;-62
2022/09/17 05:57:54;;;;;;;13.27;1.67;;;10.10;99.90;;;;;;5116400;28;20043;-64
2022/09/17 06:00:20;;;;;;;13.20;2.55;;;9.80;99.90;;;;;;5116587;28;20039;-62
2022/09/17 06:02:45;;;;;;;8.30;1.40;;;10.00;99.90;;;;;;5116688;28;20050;-62
2022/09/17 06:05:11;;;;;;;13.70;1.92;;;10.00;99.90;;;;;;5116556;28;20374;-62
2022/09/17 06:07:37;;;;;;;15.32;2.03;;;10.10;99.90;;;;;;5116319;28;20050;-62
2022/09/17 06:10:07;;;;;;;14.00;2.42;;;9.60;99.90;;;;;;5116230;28;20050;-62
2022/09/17 06:12:34;;;;;;;26.73;4.07;;;10.00;99.90;;;;;;5114920;28;20126;-62
2022/09/17 06:15:00;;;;;;;16.05;2.00;;;10.10;99.90;;;;;;5114385;28;20039;-63
2022/09/17 06:17:26;;;;;;;17.35;3.10;;;10.20;99.90;;;;;;5114752;28;20036;-61
2022/09/17 06:19:51;;;;;;;17.92;2.17;;;10.20;99.90;;;;;;5114788;28;20031;-62
2022/09/17 06:22:19;;;;;;;11.95;3.05;;;10.00;99.90;;;;;;5114450;28;20032;-62
2022/09/17 06:24:44;;;;;;;9.77;1.98;;;10.30;99.90;;;;;;5114538;28;20047;-62
2022/09/17 06:27:10;;;;;;;6.13;1.25;;;9.90;99.90;;;;;;5114218;28;20050;-62
2022/09/17 06:29:36;;;;;;;9.48;1.30;;;10.10;99.90;;;;;;5114392;28;20051;-62
2022/09/17 06:32:01;;;;;;;13.70;1.52;;;10.20;99.90;;;;;;5114413;28;20039;-62
2022/09/17 06:34:27;;;;;;;9.57;1.35;;;10.50;99.90;;;;;;5095708;28;20051;-62
2022/09/17 06:36:53;;;;;;;10.48;1.67;;;10.40;99.90;;;;;;5114387;28;20040;-62
2022/09/17 06:39:18;;;;;;;9.98;1.83;;;10.60;99.90;;;;;;5096093;28;20032;-63
2022/09/17 06:41:45;;;;;;;9.93;1.40;;;10.50;99.90;;;;;;5108977;28;20044;-62
2022/09/17 06:44:10;;;;;;;10.10;1.48;;;10.40;99.90;;;;;;5114200;28;20448;-62
2022/09/17 06:46:36;;;;;;;10.75;1.73;;;10.30;99.90;;;;;;5114155;28;20118;-62
2022/09/17 06:49:02;;;;;;;7.78;1.52;;;10.20;99.90;;;;;;5095620;28;20043;-62
2022/09/17 06:51:27;;;;;;;8.45;1.75;;;10.00;99.90;;;;;;5113926;28;20039;-61
2022/09/17 06:53:53;;;;;;;6.63;1.17;;;10.00;99.90;;;;;;5113558;28;20051;-61
2022/09/17 06:56:19;;;;;;;15.48;2.08;;;10.50;99.90;;;;;;5113277;28;20097;-62
2022/09/17 06:58:45;;;;;;;12.45;1.73;;;10.10;99.90;;;;;;5113794;28;20368;-62
2022/09/17 07:01:12;;;;;;;13.13;2.20;;;11.00;99.90;;;;;;5114152;28;20047;-62
2022/09/17 07:03:38;;;;;;;11.30;2.95;;;11.10;99.90;;;;;;5113819;28;20047;-62
2022/09/17 07:06:08;;;;;;;12.60;1.70;;;11.10;99.90;;;;;;5095512;28;20491;-62
2022/09/17 07:08:34;;;;;;;16.73;2.15;;;11.50;99.90;;;;;;5113598;28;20046;-63
2022/09/17 07:11:00;;;;;;;12.70;2.10;;;11.70;99.90;;;;;;5111628;28;20043;-62
2022/09/17 07:13:26;;;;;;;8.80;1.20;;;11.50;99.90;;;;;;5094515;28;20040;-60
2022/09/17 07:15:56;;;;;;;18.20;2.70;;;11.60;99.90;;;;;;5093261;28;20098;-62
2022/09/17 07:18:22;;;;;;;11.07;1.38;;;11.30;99.90;;;;;;5092871;28;20075;-63
2022/09/17 07:20:59;;;;;;;14.05;1.88;;;11.80;99.90;;;;;;5092812;28;20035;-61
2022/09/17 07:23:30;;;;;;;15.73;2.33;;;11.80;99.90;;;;;;5092540;28;20442;-63
2022/09/17 07:25:58;;;;;;;10.63;2.42;;;12.00;99.90;;;;;;5092187;28;20044;-62
2022/09/17 07:28:25;;;;;;;8.32;1.25;;;12.10;99.90;;;;;;5074655;28;20514;-62
2022/09/17 07:30:51;;;;;;;7.30;1.30;;;12.00;99.90;;;;;;5092535;28;20147;-62
2022/09/17 07:33:22;;;;;;;9.05;1.92;;;11.90;99.90;;;;;;5074771;28;20056;-62
2022/09/17 07:36:00;;;;;;;15.07;2.85;;;11.90;99.90;;;;;;5091654;28;20046;-62
2022/09/17 07:38:27;;;;;;;9.30;1.95;;;12.10;99.90;;;;;;5092029;28;20498;-62
2022/09/17 07:40:58;;;;;;;14.23;1.80;;;12.40;99.90;;;;;;5078366;28;20097;-63
2022/09/17 07:43:29;;;;;;;8.77;1.50;;;12.40;99.90;;;;;;5073896;28;20445;-62
2022/09/17 07:45:58;;;;;;;11.00;2.30;;;12.60;99.90;;;;;;5092340;28;20051;-62
2022/09/17 07:48:24;;;;;;;15.77;1.55;;;12.80;99.90;;;;;;5092130;28;20475;-62
2022/09/17 07:50:50;;;;;;;12.50;1.92;;;12.90;99.90;;;;;;5091506;28;20047;-62
2022/09/17 07:53:17;;;;;;;11.63;1.95;;;12.80;99.90;;;;;;5092229;28;20040;-62
2022/09/17 07:55:53;;;;;;;12.32;2.08;;;12.80;99.90;;;;;;5073906;28;20040;-62
2022/09/17 07:58:20;;;;;;;12.85;2.05;;;12.40;99.90;;;;;;5092198;28;20122;-63
2022/09/17 08:00:47;;;;;;;12.52;1.92;;;9.40;99.90;;;;;;5091971;28;20042;-67
2022/09/17 08:03:13;;;;;;;16.33;2.65;;;8.70;99.90;;;;;;5091851;28;20062;-64
2022/09/17 08:05:38;;;;;;;15.75;2.78;;;10.40;99.90;;;;;;5092133;28;20047;-62
2022/09/17 08:08:04;;;;;;;11.82;1.60;;;10.20;99.90;;;;;;5090885;28;20638;-62
2022/09/17 08:10:30;;;;;;;15.38;2.15;;;9.50;99.90;;;;;;5096125;28;20264;-62
2022/09/17 08:12:56;;;;;;;10.43;1.73;;;8.50;99.90;;;;;;5106088;28;20075;-62
2022/09/17 08:15:23;;;;;;;12.00;2.30;;;8.80;99.90;;;;;;5112179;28;20066;-61
2022/09/17 08:17:50;;;;;;;8.10;1.30;;;8.90;99.90;;;;;;5111458;28;20043;-61
2022/09/17 08:20:16;;;;;;;11.98;1.45;;;10.10;99.90;;;;;;5112065;28;20048;-61
2022/09/17 08:22:42;;;;;;;13.20;2.53;;;9.70;99.90;;;;;;5093816;28;20515;-62
2022/09/17 08:25:09;;;;;;;11.85;1.85;;;11.10;99.90;;;;;;5103561;28;20059;-62
2022/09/17 08:27:37;;;;;;;10.73;1.75;;;11.20;99.90;;;;;;5091624;28;20437;-61
2022/09/17 08:30:04;;;;;;;14.93;1.88;;;10.70;99.90;;;;;;5092105;28;20396;-60
2022/09/17 08:32:30;;;;;;;16.20;2.17;;;9.60;99.90;;;;;;5092642;28;20119;-60
2022/09/17 08:34:56;;;;;;;13.00;2.63;;;11.30;99.90;;;;;;5092362;28;20119;-61
2022/09/17 08:37:22;;;;;;;22.80;2.83;;;10.50;99.90;;;;;;5092002;28;20039;-60
2022/09/17 08:39:48;;;;;;;14.73;2.15;;;11.80;99.90;;;;;;5092464;28;20101;-61
2022/09/17 08:42:38;;;;;;;11.48;1.63;;;11.10;99.90;;;;;;5091983;28;20512;-61
2022/09/17 08:45:13;;;;;;;8.20;1.27;;;10.80;99.90;;;;;;5092935;28;20441;-61
2022/09/17 08:47:42;;;;;;;8.73;1.65;;;10.30;99.90;;;;;;5092668;28;20044;-60
2022/09/17 08:50:28;;;;;;;12.60;1.60;;;9.40;99.90;;;;;;5092734;28;20048;-60
2022/09/17 08:53:22;;;;;;;11.70;1.60;;;9.20;99.90;;;;;;5096669;28;20051;-61
2022/09/17 08:56:11;;;;;;;7.35;1.35;;;9.10;99.90;;;;;;5100842;28;20062;-61
2022/09/17 08:59:07;;;;;;;11.07;1.83;;;9.90;99.90;;;;;;5101759;28;20067;-61
2022/09/17 09:01:48;;;;;;;8.88;1.20;;;9.60;99.90;;;;;;5071171;28;20077;-62
2022/09/17 09:04:43;;;;;;;15.38;2.95;;;10.60;99.90;;;;;;5101372;28;20396;-62
2022/09/17 09:07:19;;;;;;;11.77;1.83;;;9.00;99.90;;;;;;5079267;28;20484;-63
2022/09/17 09:10:23;;;;;;;12.63;1.80;;;8.80;99.90;;;;;;5102041;28;20076;-60
2022/09/17 09:12:51;;;;;;;13.73;2.28;;;9.00;99.90;;;;;;5087543;28;20048;-61
2022/09/17 09:15:25;;;;;;;12.57;2.38;;;8.90;99.90;;;;;;5101234;28;20054;-61
2022/09/17 09:17:53;;;;;;;13.00;2.10;;;9.70;99.90;;;;;;5112458;28;20411;-61
2022/09/17 09:20:28;;;;;;;16.17;2.20;;;10.50;99.90;;;;;;5112444;28;20048;-61
2022/09/17 09:22:54;;;;;;;14.63;2.58;;;11.00;99.90;;;;;;5112810;28;20443;-60
2022/09/17 09:25:22;;;;;;;11.73;1.95;;;10.00;99.90;;;;;;5112582;28;20043;-62
2022/09/17 09:28:17;;;;;;;11.43;1.75;;;11.00;99.90;;;;;;5094320;28;20103;-62
2022/09/17 09:31:11;;;;;;;9.13;1.65;;;11.20;99.90;;;;;;5112205;28;20506;-61
2022/09/17 09:33:40;;;;;;;10.30;1.65;;;9.60;99.90;;;;;;5093798;28;20371;-62
2022/09/17 09:36:10;;;;;;;10.85;2.10;;;10.50;99.90;;;;;;5112444;28;20031;-61
2022/09/17 09:38:47;;;;;;;14.48;2.40;;;10.50;99.90;;;;;;5100365;28;20081;-61
2022/09/17 09:41:17;;;;;;;9.02;1.60;;;9.70;99.90;;;;;;5102645;28;20479;-61
2022/09/17 09:43:50;;;;;;;9.23;1.98;;;10.20;99.90;;;;;;5112487;28;20047;-62
2022/09/17 09:46:45;;;;;;;8.48;1.48;;;10.00;99.90;;;;;;5112479;28;20043;-62
2022/09/17 09:49:27;;;;;;;12.38;2.83;;;10.80;99.90;;;;;;5094086;28;20139;-62
2022/09/17 09:52:11;;;;;;;12.45;1.90;;;10.70;99.90;;;;;;5112124;28;20044;-62
2022/09/17 09:54:50;;;;;;;13.15;2.50;;;11.70;99.90;;;;;;5112069;28;20058;-62
2022/09/17 09:57:21;;;;;;;10.95;2.00;;;11.90;99.90;;;;;;5110990;28;20420;-62
2022/09/17 09:59:47;;;;;;;9.32;1.55;;;11.70;99.90;;;;;;5111333;28;20501;-61
2022/09/17 10:02:13;;;;;;;13.65;1.65;;;11.70;99.90;;;;;;5111278;28;20524;-61
2022/09/17 10:04:39;;;;;;;11.10;1.70;;;11.80;99.90;;;;;;5093697;28;20044;-61
2022/09/17 10:07:10;;;;;;;16.25;2.28;;;11.90;99.90;;;;;;5093175;28;20100;-61
2022/09/17 10:09:38;;;;;;;13.50;2.35;;;11.90;99.90;;;;;;5111951;28;20039;-61
2022/09/17 10:12:07;;;;;;;16.05;2.70;;;12.10;99.90;;;;;;5093413;28;20164;-61
2022/09/17 10:14:37;;;;;;;18.25;2.15;;;12.10;99.90;;;;;;5111879;28;20486;-61
2022/09/17 10:17:25;;;;;;;13.63;2.40;;;11.90;99.90;;;;;;5112213;28;20035;-61
2022/09/17 10:20:09;;;;;;;14.77;1.88;;;11.80;99.90;;;;;;5112009;28;20051;-61
2022/09/17 10:22:36;;;;;;;14.48;2.45;;;11.50;99.90;;;;;;5111842;28;20043;-61
2022/09/17 10:25:04;;;;;;;14.77;2.17;;;11.50;99.90;;;;;;5111709;28;20039;-61
2022/09/17 10:27:30;;;;;;;12.00;1.92;;;11.50;99.90;;;;;;5100185;28;20496;-60
2022/09/17 10:30:15;;;;;;;15.18;2.40;;;11.50;99.90;;;;;;5092144;28;20101;-61
2022/09/17 10:32:41;;;;;;;13.15;2.10;;;11.00;99.90;;;;;;5095203;28;20040;-61
2022/09/17 10:35:15;;;;;;;11.82;1.70;;;10.60;99.90;;;;;;5095349;28;20076;-61
2022/09/17 10:37:49;;;;;;;10.38;2.20;;;10.80;99.90;;;;;;5095654;28;20068;-61
2022/09/17 10:40:17;;;;;;;15.90;2.60;;;10.60;99.90;;;;;;5095230;28;20036;-61
2022/09/17 10:42:44;;;;;;;18.45;2.88;;;10.80;99.90;;;;;;5095381;28;20391;-60
2022/09/17 10:45:31;;;;;;;13.57;2.40;;;10.90;99.90;;;;;;5095249;28;20053;-61
2022/09/17 10:47:59;;;;;;;13.65;2.25;;;10.90;99.90;;;;;;5094943;28;20416;-61
2022/09/17 10:50:33;;;;;;;13.70;2.03;;;11.30;99.90;;;;;;5076700;28;20494;-61
2022/09/17 10:53:14;;;;;;;14.07;2.17;;;11.60;99.90;;;;;;5094468;28;20396;-60
2022/09/17 10:55:42;;;;;;;18.30;2.38;;;11.70;99.90;;;;;;5094521;28;20047;-60
2022/09/17 10:58:22;;;;;;;19.08;2.33;;;12.10;99.90;;;;;;5094670;28;20071;-61
2022/09/17 11:01:12;;;;;;;13.80;2.20;;;12.40;99.90;;;;;;5094842;28;20036;-61
2022/09/17 11:04:02;;;;;;;12.85;2.15;;;12.50;99.90;;;;;;5094717;28;20090;-61
2022/09/17 11:06:31;;;;;;;11.20;1.60;;;13.00;99.90;;;;;;5094647;28;20132;-61
2022/09/17 11:09:25;;;;;;;11.88;2.45;;;12.90;99.90;;;;;;5094684;28;20090;-61
2022/09/17 11:12:05;;;;;;;9.57;1.90;;;12.70;99.90;;;;;;5094706;28;20493;-60
2022/09/17 11:14:34;;;;;;;12.73;2.05;;;12.70;99.90;;;;;;5094452;28;20046;-61
2022/09/17 11:17:37;;;;;;;10.57;1.85;;;12.70;99.90;;;;;;5094028;28;20044;-61
2022/09/17 11:20:15;;;;;;;13.23;1.98;;;13.00;99.90;;;;;;5094333;28;20044;-62
2022/09/17 11:23:20;;;;;;;11.65;2.08;;;12.80;99.90;;;;;;5094586;28;20036;-61
2022/09/17 11:26:04;;;;;;;12.48;2.03;;;13.00;99.90;;;;;;5076091;28;20036;-61
2022/09/17 11:28:50;;;;;;;12.63;1.75;;;13.40;99.90;;;;;;5094462;28;20063;-61
2022/09/17 11:31:32;;;;;;;11.77;1.80;;;13.40;99.90;;;;;;5094236;28;20047;-60
2022/09/17 11:34:15;;;;;;;17.40;2.22;;;13.30;99.90;;;;;;5094040;28;20055;-61
2022/09/17 11:37:01;;;;;;;8.40;2.30;;;13.20;99.90;;;;;;5075778;28;20048;-61
2022/09/17 11:39:44;;;;;;;20.98;2.45;;;13.50;99.90;;;;;;5094008;28;20035;-62
2022/09/17 11:42:17;;;;;;;12.32;2.78;;;13.70;99.90;;;;;;5089966;28;20047;-61
2022/09/17 11:44:50;;;;;;;13.77;2.13;;;14.00;99.90;;;;;;5093916;28;20048;-61
2022/09/17 11:47:32;;;;;;;12.75;2.70;;;13.70;99.90;;;;;;5093860;28;20407;-61
2022/09/17 11:50:21;;;;;;;;;;;13.30;99.90;;;;;;5094396;28;20100;-61
2022/09/17 11:53:08;;;;;;;16.23;2.50;;;13.10;99.90;;;;;;5073607;28;20351;-61
2022/09/17 11:55:41;;;;;;;14.45;1.90;;;13.30;99.90;;;;;;5093807;28;20048;-60
2022/09/17 11:58:18;;;;;;;9.13;1.58;;;13.60;99.90;;;;;;5093488;28;20040;-61
2022/09/17 12:00:52;;;;;;;14.65;2.10;;;13.80;99.90;;;;;;5075291;28;20039;-60
2022/09/17 12:03:40;;;;;;;12.30;2.10;;;13.70;99.90;;;;;;5093212;28;20043;-61
2022/09/17 12:06:13;;;;;;;17.40;2.47;;;13.90;99.90;;;;;;5093567;28;20121;-61
2022/09/17 12:08:59;;;;;;;10.45;1.98;;;14.20;99.90;;;;;;5093642;28;20445;-60
2022/09/17 12:11:36;;;;;;;15.95;2.30;;;14.30;99.90;;;;;;5092801;28;20099;-60
2022/09/17 12:14:15;;;;;;;9.43;1.90;;;14.60;99.90;;;;;;5093560;28;20038;-60
2022/09/17 12:16:47;;;;;;;12.88;1.73;;;14.80;99.90;;;;;;5093245;28;20096;-61
2022/09/17 12:19:20;;;;;;;11.13;1.90;;;14.70;99.90;;;;;;5093039;28;20119;-61
2022/09/17 12:21:50;;;;;;;10.23;1.65;;;14.70;99.90;;;;;;5093145;28;20048;-60
2022/09/17 12:24:25;;;;;;;8.23;1.83;;;14.80;99.90;;;;;;5093207;28;20052;-62
2022/09/17 12:27:18;;;;;;;9.70;1.60;;;14.90;99.90;;;;;;5092758;28;20111;-61
2022/09/17 12:30:02;;;;;;;9.60;1.73;;;15.00;99.90;;;;;;5092878;28;20526;-60
2022/09/17 12:32:56;;;;;;;12.82;2.05;;;15.00;99.90;;;;;;5075002;28;20074;-61
2022/09/17 12:35:47;;;;;;;7.97;1.45;;;15.00;99.90;;;;;;5092414;28;20423;-60
2022/09/17 12:38:44;;;;;;;12.30;1.83;;;15.10;99.90;;;;;;5092390;28;20055;-61
2022/09/17 12:41:46;;;;;;;10.93;1.80;;;15.20;99.90;;;;;;5092544;28;20097;-60
2022/09/17 12:44:27;;;;;;;14.10;2.40;;;15.20;99.90;;;;;;5074492;28;20032;-61
2022/09/17 12:47:24;;;;;;;17.03;2.30;;;14.10;99.90;;;;;;5074081;28;20047;-61
2022/09/17 12:50:45;;;;;;;10.30;1.75;;;14.20;99.90;;;;;;5092703;28;20043;-61
2022/09/17 12:53:17;;;;;;;14.13;3.60;;;14.40;99.90;;;;;;5009721;28;20068;-61
2022/09/17 12:56:05;;;;;;;18.33;3.10;;;14.50;99.90;;;;;;5010270;28;20073;-61
2022/09/17 12:58:55;;;;;;;12.65;2.83;;;14.70;99.90;;;;;;5073537;28;20054;-60
2022/09/17 13:01:30;;;;;;;11.52;2.08;;;14.80;99.90;;;;;;5092578;28;20089;-61
2022/09/17 13:04:10;;;;;;;13.32;2.17;;;14.70;99.90;;;;;;5092304;28;20496;-59
2022/09/17 13:06:36;;;;;;;11.68;2.35;;;14.80;99.90;;;;;;5074527;28;20051;-61
2022/09/17 13:09:35;;;;;;;11.32;2.33;;;15.10;99.90;;;;;;5092397;28;20470;-60